createdAt,value
2018-09-22T00:00:37.031Z,10.40
2018-09-22T00:03:06.141Z,10.30
2018-09-22T00:05:34.366Z,10.20
2018-09-22T00:08:02.743Z,10.10
2018-09-22T00:10:31.150Z,10.00
2018-09-22T00:12:59.330Z,9.90
2018-09-22T00:15:27.533Z,9.80
2018-09-22T00:17:55.741Z,9.60
2018-09-22T00:20:23.996Z,9.40
2018-09-22T00:22:52.620Z,9.10
2018-09-22T00:25:20.787Z,9.00
2018-09-22T00:27:49.610Z,8.90
2018-09-22T00:30:17.857Z,8.70
2018-09-22T00:32:46.230Z,8.60
2018-09-22T00:35:14.467Z,8.40
2018-09-22T00:37:43.378Z,8.30
2018-09-22T00:40:11.630Z,8.10
2018-09-22T00:42:39.857Z,8.00
2018-09-22T00:45:08.042Z,8.10
2018-09-22T00:47:37.210Z,8.10
2018-09-22T00:50:07.338Z,8.10
2018-09-22T00:52:35.479Z,8.10
2018-09-22T00:55:03.683Z,8.10
2018-09-22T00:57:31.879Z,8.20
2018-09-22T01:00:00.249Z,8.10
2018-09-22T01:02:28.466Z,8.20
2018-09-22T01:04:56.631Z,8.20
2018-09-22T01:07:25.782Z,8.30
2018-09-22T01:09:53.986Z,8.40
2018-09-22T01:12:22.209Z,8.40
2018-09-22T01:14:50.794Z,8.40
2018-09-22T01:17:18.998Z,8.50
2018-09-22T01:19:47.492Z,8.50
2018-09-22T01:22:15.700Z,8.60
2018-09-22T01:24:43.937Z,8.60
2018-09-22T01:27:12.146Z,8.50
2018-09-22T01:29:41.166Z,8.50
2018-09-22T01:32:09.322Z,8.40
2018-09-22T01:34:37.514Z,8.40
2018-09-22T01:37:05.724Z,8.40
2018-09-22T01:39:34.206Z,8.50
2018-09-22T01:42:02.334Z,8.50
2018-09-22T01:44:30.510Z,8.60
2018-09-22T01:46:59.022Z,8.50
2018-09-22T01:49:27.178Z,8.50
2018-09-22T01:51:55.349Z,8.50
2018-09-22T01:54:23.521Z,8.50
2018-09-22T01:56:52.519Z,8.40
2018-09-22T01:59:21.001Z,8.40
2018-09-22T02:01:49.167Z,8.30
2018-09-22T02:04:17.822Z,8.20
2018-09-22T02:06:46.289Z,8.20
2018-09-22T02:09:14.575Z,8.20
2018-09-22T02:11:42.755Z,8.20
2018-09-22T02:14:11.282Z,8.10
2018-09-22T02:16:39.476Z,8.10
2018-09-22T02:19:07.650Z,8.10
2018-09-22T02:21:36.024Z,7.90
2018-09-22T02:24:04.214Z,7.80
2018-09-22T02:26:32.371Z,7.80
2018-09-22T02:29:00.738Z,7.70
2018-09-22T02:31:29.135Z,7.60
2018-09-22T02:33:57.254Z,7.50
2018-09-22T02:36:25.470Z,7.40
2018-09-22T02:38:53.666Z,7.40
2018-09-22T02:41:21.846Z,7.40
2018-09-22T02:43:50.270Z,7.40
2018-09-22T02:46:18.439Z,7.50
2018-09-22T02:48:46.653Z,7.50
2018-09-22T02:51:14.825Z,7.50
2018-09-22T02:53:43.030Z,7.50
2018-09-22T02:56:11.227Z,7.40
2018-09-22T02:58:39.418Z,7.30
2018-09-22T03:01:07.624Z,7.30
2018-09-22T03:03:35.818Z,7.30
2018-09-22T03:06:03.980Z,7.30
2018-09-22T03:08:32.179Z,7.30
2018-09-22T03:11:00.362Z,7.30
2018-09-22T03:13:29.518Z,7.30
2018-09-22T03:15:57.741Z,7.30
2018-09-22T03:18:25.927Z,7.20
2018-09-22T03:20:54.115Z,7.20
2018-09-22T03:23:22.282Z,7.20
2018-09-22T03:25:50.422Z,7.10
2018-09-22T03:28:22.094Z,7.10
2018-09-22T03:30:50.274Z,7.00
2018-09-22T03:33:18.465Z,7.00
2018-09-22T03:35:46.847Z,7.00
2018-09-22T03:38:15.049Z,7.10
2018-09-22T03:40:43.742Z,7.20
2018-09-22T03:43:12.374Z,7.20
2018-09-22T03:45:40.858Z,7.30
2018-09-22T03:48:09.050Z,7.30
2018-09-22T03:50:38.178Z,7.20
2018-09-22T03:53:06.447Z,7.20
2018-09-22T03:55:34.629Z,7.10
2018-09-22T03:58:02.827Z,7.00
2018-09-22T04:00:31.150Z,6.90
2018-09-22T04:02:59.466Z,6.90
2018-09-22T04:05:27.631Z,6.90
2018-09-22T04:07:55.802Z,6.90
2018-09-22T04:10:23.998Z,6.90
2018-09-22T04:12:52.206Z,6.90
2018-09-22T04:15:20.996Z,6.90
2018-09-22T04:17:49.222Z,6.90
2018-09-22T04:20:17.651Z,7.10
2018-09-22T04:22:45.966Z,7.20
2018-09-22T04:25:14.166Z,7.30
2018-09-22T04:27:42.602Z,7.30
2018-09-22T04:30:10.826Z,7.40
2018-09-22T04:35:14.058Z,7.40
2018-09-22T04:37:42.219Z,7.40
2018-09-22T04:40:14.141Z,7.30
2018-09-22T04:42:42.311Z,7.20
2018-09-22T04:45:10.510Z,7.20
2018-09-22T04:47:38.806Z,7.10
2018-09-22T04:50:07.286Z,7.20
2018-09-22T04:52:35.458Z,7.20
2018-09-22T04:55:06.455Z,7.30
2018-09-22T04:57:34.630Z,7.40
2018-09-22T05:00:02.826Z,7.40
2018-09-22T05:02:31.318Z,7.50
2018-09-22T05:04:59.560Z,7.50
2018-09-22T05:07:27.810Z,7.40
2018-09-22T05:09:55.986Z,7.40
2018-09-22T05:12:24.270Z,7.50
2018-09-22T05:14:53.555Z,7.50
2018-09-22T05:17:21.781Z,7.50
2018-09-22T05:19:49.990Z,7.50
2018-09-22T05:22:18.175Z,7.60
2018-09-22T05:24:46.455Z,7.70
2018-09-22T05:27:14.782Z,7.80
2018-09-22T05:29:43.622Z,7.70
2018-09-22T05:32:13.402Z,7.80
2018-09-22T05:34:41.625Z,7.80
2018-09-22T05:37:09.826Z,7.80
2018-09-22T05:39:38.063Z,7.80
2018-09-22T05:42:06.274Z,7.80
2018-09-22T05:44:34.517Z,7.80
2018-09-22T05:47:02.682Z,7.90
2018-09-22T05:49:30.866Z,7.90
2018-09-22T05:51:59.050Z,7.90
2018-09-22T05:54:27.198Z,8.00
2018-09-22T05:56:55.432Z,8.10
2018-09-22T05:59:26.042Z,8.10
2018-09-22T06:01:54.286Z,8.20
2018-09-22T06:04:22.434Z,8.30
2018-09-22T06:06:51.699Z,8.50
2018-09-22T06:09:19.909Z,8.60
2018-09-22T06:11:48.139Z,8.80
2018-09-22T06:14:16.316Z,8.90
2018-09-22T06:16:44.742Z,9.10
2018-09-22T06:19:12.972Z,9.30
2018-09-22T06:21:41.137Z,9.40
2018-09-22T06:24:09.360Z,9.50
2018-09-22T06:26:37.575Z,9.60
2018-09-22T06:29:05.742Z,9.80
2018-09-22T06:31:33.966Z,10.00
2018-09-22T06:34:02.489Z,10.10
2018-09-22T06:36:30.961Z,10.40
2018-09-22T06:38:59.146Z,10.60
2018-09-22T06:41:27.351Z,10.70
2018-09-22T06:43:55.574Z,10.80
2018-09-22T06:46:23.755Z,10.90
2018-09-22T06:48:54.816Z,11.10
2018-09-22T06:51:25.668Z,11.60
2018-09-22T06:53:53.870Z,11.90
2018-09-22T06:56:22.058Z,12.10
2018-09-22T06:58:50.269Z,12.40
2018-09-22T07:01:18.527Z,12.40
2018-09-22T07:03:46.843Z,12.40
2018-09-22T07:06:15.098Z,12.40
2018-09-22T07:08:43.894Z,12.50
2018-09-22T07:11:12.078Z,12.70
2018-09-22T07:13:40.294Z,12.80
2018-09-22T07:16:10.609Z,13.00
2018-09-22T07:18:41.683Z,13.10
2018-09-22T07:21:09.921Z,13.30
2018-09-22T07:23:38.425Z,13.50
2018-09-22T07:26:06.611Z,13.70
2018-09-22T07:28:34.813Z,13.80
2018-09-22T07:31:02.988Z,14.00
2018-09-22T07:33:31.382Z,13.80
2018-09-22T07:35:59.577Z,13.80
2018-09-22T07:38:27.751Z,13.70
2018-09-22T07:40:55.965Z,13.80
2018-09-22T07:43:24.158Z,13.90
2018-09-22T07:45:52.462Z,14.00
2018-09-22T07:48:20.558Z,14.20
2018-09-22T07:50:48.786Z,14.50
2018-09-22T07:53:17.006Z,14.60
2018-09-22T07:55:45.206Z,14.80
2018-09-22T07:58:13.447Z,15.20
2018-09-22T08:00:41.675Z,15.60
2018-09-22T08:03:09.903Z,15.90
2018-09-22T08:05:38.073Z,16.30
2018-09-22T08:08:06.276Z,16.30
2018-09-22T08:10:34.474Z,16.00
2018-09-22T08:13:02.652Z,16.10
2018-09-22T08:15:30.862Z,16.40
2018-09-22T08:17:59.094Z,16.30
2018-09-22T08:20:27.328Z,16.60
2018-09-22T08:22:55.558Z,16.90
2018-09-22T08:25:23.769Z,16.80
2018-09-22T08:27:51.950Z,17.10
2018-09-22T08:30:20.186Z,17.30
2018-09-22T08:32:48.362Z,17.50
2018-09-22T08:35:16.549Z,17.30
2018-09-22T08:37:44.901Z,17.30
2018-09-22T08:40:13.137Z,18.10
2018-09-22T08:42:41.316Z,18.70
2018-09-22T08:45:09.706Z,18.50
2018-09-22T08:47:38.482Z,18.70
2018-09-22T08:50:07.078Z,19.10
2018-09-22T08:52:35.264Z,19.20
2018-09-22T08:55:03.449Z,19.00
2018-09-22T08:57:31.886Z,19.10
2018-09-22T09:00:00.050Z,19.40
2018-09-22T09:02:28.470Z,20.10
2018-09-22T09:04:56.630Z,20.30
2018-09-22T09:07:24.821Z,19.60
2018-09-22T09:09:52.989Z,19.80
2018-09-22T09:12:21.158Z,20.00
2018-09-22T09:14:49.359Z,19.80
2018-09-22T09:17:17.566Z,19.90
2018-09-22T09:19:46.467Z,20.00
2018-09-22T09:22:14.710Z,20.30
2018-09-22T09:24:43.107Z,20.40
2018-09-22T09:27:11.334Z,20.20
2018-09-22T09:29:39.526Z,19.90
2018-09-22T09:32:07.698Z,19.90
2018-09-22T09:34:35.902Z,20.20
2018-09-22T09:37:04.250Z,19.40
2018-09-22T09:39:33.313Z,19.50
2018-09-22T09:42:01.587Z,19.90
2018-09-22T09:44:29.816Z,20.80
2018-09-22T09:46:58.774Z,20.70
2018-09-22T09:49:27.309Z,20.90
2018-09-22T09:51:55.519Z,21.20
2018-09-22T09:54:23.713Z,21.40
2018-09-22T09:56:52.506Z,21.80
2018-09-22T09:59:20.699Z,21.60
2018-09-22T10:01:48.902Z,21.50
2018-09-22T10:04:17.130Z,21.90
2018-09-22T10:06:46.190Z,22.40
2018-09-22T10:09:14.667Z,22.70
2018-09-22T10:11:43.624Z,22.00
2018-09-22T10:14:11.786Z,22.30
2018-09-22T10:16:40.006Z,22.20
2018-09-22T10:19:09.891Z,22.30
2018-09-22T10:21:38.112Z,22.30
2018-09-22T10:24:06.274Z,22.20
2018-09-22T10:26:34.473Z,22.50
2018-09-22T10:29:02.916Z,23.30
2018-09-22T10:31:31.386Z,23.50
2018-09-22T10:33:59.938Z,23.60
2018-09-22T10:36:28.129Z,24.10
2018-09-22T10:38:57.027Z,22.90
2018-09-22T10:41:25.202Z,22.80
2018-09-22T10:43:53.379Z,22.40
2018-09-22T10:46:21.602Z,22.60
2018-09-22T10:48:49.781Z,22.70
2018-09-22T10:51:18.308Z,23.00
2018-09-22T10:53:46.526Z,22.80
2018-09-22T10:56:14.695Z,23.00
2018-09-22T10:58:44.059Z,23.30
2018-09-22T11:01:12.338Z,23.40
2018-09-22T11:03:40.501Z,23.10
2018-09-22T11:06:08.696Z,23.80
2018-09-22T11:08:37.165Z,24.00
2018-09-22T11:11:05.345Z,23.60
2018-09-22T11:13:33.530Z,23.20
2018-09-22T11:16:01.784Z,22.40
2018-09-22T11:18:29.998Z,21.90
2018-09-22T11:20:58.178Z,21.90
2018-09-22T11:23:26.404Z,22.00
2018-09-22T11:25:54.673Z,21.60
2018-09-22T11:28:22.850Z,21.40
2018-09-22T11:30:51.075Z,20.90
2018-09-22T11:33:19.357Z,20.80
2018-09-22T11:35:47.559Z,20.60
2018-09-22T11:38:15.946Z,21.30
2018-09-22T11:40:44.263Z,22.10
2018-09-22T11:43:12.446Z,22.00
2018-09-22T11:45:40.630Z,21.40
2018-09-22T11:48:08.838Z,21.90
2018-09-22T11:50:37.094Z,22.60
2018-09-22T11:53:05.787Z,23.10
2018-09-22T11:55:34.010Z,23.00
2018-09-22T11:58:02.217Z,22.80
2018-09-22T12:00:31.691Z,22.00
2018-09-22T12:02:59.934Z,22.10
2018-09-22T12:05:28.134Z,22.30
2018-09-22T12:07:56.282Z,22.50
2018-09-22T12:10:24.532Z,22.70
2018-09-22T12:12:52.692Z,23.50
2018-09-22T12:15:20.863Z,23.20
2018-09-22T12:17:49.063Z,23.10
2018-09-22T12:20:17.250Z,23.00
2018-09-22T12:22:45.456Z,22.70
2018-09-22T12:25:13.610Z,22.20
2018-09-22T12:27:41.823Z,21.90
2018-09-22T12:30:10.483Z,21.70
2018-09-22T12:32:38.717Z,22.00
2018-09-22T12:35:06.946Z,22.30
2018-09-22T12:37:35.159Z,22.40
2018-09-22T12:40:03.380Z,22.10
2018-09-22T12:42:31.554Z,21.60
2018-09-22T12:44:59.742Z,21.40
2018-09-22T12:47:28.050Z,21.80
2018-09-22T12:49:56.293Z,21.50
2018-09-22T12:52:24.590Z,21.70
2018-09-22T12:54:53.362Z,21.70
2018-09-22T12:57:22.204Z,21.90
2018-09-22T12:59:50.538Z,22.00
2018-09-22T13:02:18.710Z,22.10
2018-09-22T13:04:46.909Z,21.60
2018-09-22T13:07:15.310Z,21.40
2018-09-22T13:09:43.518Z,21.20
2018-09-22T13:12:13.659Z,20.90
2018-09-22T13:14:42.525Z,20.60
2018-09-22T13:17:10.761Z,20.40
2018-09-22T13:19:38.990Z,20.00
2018-09-22T13:22:07.954Z,20.00
2018-09-22T13:24:37.518Z,20.10
2018-09-22T13:27:05.707Z,20.40
2018-09-22T13:29:34.957Z,20.30
2018-09-22T13:32:03.126Z,20.20
2018-09-22T13:34:31.553Z,20.10
2018-09-22T13:36:59.854Z,20.20
2018-09-22T13:39:28.242Z,20.30
2018-09-22T13:41:56.518Z,20.30
2018-09-22T13:44:24.730Z,20.00
2018-09-22T13:46:52.986Z,20.00
2018-09-22T13:49:21.471Z,19.90
2018-09-22T13:51:49.754Z,19.80
2018-09-22T13:54:17.990Z,19.70
2018-09-22T13:56:46.298Z,19.60
2018-09-22T13:59:14.527Z,19.60
2018-09-22T14:01:42.738Z,19.60
2018-09-22T14:04:11.466Z,19.60
2018-09-22T14:06:39.990Z,19.60
2018-09-22T14:09:10.002Z,19.30
2018-09-22T14:11:38.234Z,19.00
2018-09-22T14:14:06.690Z,18.90
2018-09-22T14:16:34.872Z,19.00
2018-09-22T14:19:03.056Z,19.20
2018-09-22T14:21:31.308Z,19.10
2018-09-22T14:23:59.531Z,19.10
2018-09-22T14:26:27.769Z,19.20
2018-09-22T14:28:56.058Z,19.40
2018-09-22T14:31:24.299Z,19.40
2018-09-22T14:33:52.480Z,19.50
2018-09-22T14:36:20.746Z,19.50
2018-09-22T14:38:48.947Z,19.50
2018-09-22T14:41:17.190Z,19.40
2018-09-22T14:43:45.381Z,19.50
2018-09-22T14:46:13.580Z,19.50
2018-09-22T14:48:41.838Z,19.40
2018-09-22T14:51:10.068Z,19.20
2018-09-22T14:53:38.329Z,19.00
2018-09-22T14:56:06.594Z,18.90
2018-09-22T14:58:34.757Z,18.70
2018-09-22T15:01:03.198Z,18.60
2018-09-22T15:03:31.591Z,18.30
2018-09-22T15:05:59.778Z,17.80
2018-09-22T15:08:28.261Z,17.70
2018-09-22T15:10:56.416Z,17.50
2018-09-22T15:13:24.592Z,17.40
2018-09-22T15:15:53.002Z,17.30
2018-09-22T15:18:21.170Z,17.20
2018-09-22T15:20:49.334Z,17.00
2018-09-22T15:23:17.698Z,16.90
2018-09-22T15:25:45.866Z,16.70
2018-09-22T15:28:14.046Z,16.60
2018-09-22T15:30:42.722Z,16.40
2018-09-22T15:33:11.338Z,16.40
2018-09-22T15:35:39.550Z,16.40
2018-09-22T15:38:08.198Z,16.40
2018-09-22T15:40:36.424Z,16.30
2018-09-22T15:43:04.662Z,16.10
2018-09-22T15:45:34.056Z,15.90
2018-09-22T15:48:02.252Z,15.70
2018-09-22T15:50:30.426Z,15.40
2018-09-22T15:52:58.614Z,15.20
2018-09-22T15:55:26.794Z,14.90
2018-09-22T15:57:54.929Z,14.70
2018-09-22T16:00:23.532Z,14.60
2018-09-22T16:02:52.067Z,14.40
2018-09-22T16:05:20.249Z,14.30
2018-09-22T16:07:48.458Z,14.20
2018-09-22T16:10:16.718Z,14.10
2018-09-22T16:12:44.973Z,13.90
2018-09-22T16:15:13.169Z,13.80
2018-09-22T16:17:41.369Z,13.60
2018-09-22T16:20:09.575Z,13.50
2018-09-22T16:22:37.750Z,13.50
2018-09-22T16:25:06.067Z,13.40
2018-09-22T16:27:34.275Z,13.30
2018-09-22T16:33:08.293Z,13.10
2018-09-22T16:35:36.489Z,13.10
2018-09-22T16:38:04.677Z,13.00
2018-09-22T16:40:32.846Z,13.00
2018-09-22T16:43:01.062Z,13.10
2018-09-22T16:45:29.317Z,13.10
2018-09-22T16:47:57.503Z,13.20
2018-09-22T16:50:25.860Z,13.20
2018-09-22T16:52:53.997Z,13.20
2018-09-22T16:55:22.171Z,13.20
2018-09-22T16:57:50.511Z,13.10
2018-09-22T17:00:18.686Z,13.10
2018-09-22T17:02:46.858Z,13.10
2018-09-22T17:05:15.078Z,13.00
2018-09-22T17:07:43.344Z,13.00
2018-09-22T17:10:13.330Z,12.90
2018-09-22T17:12:41.539Z,12.90
2018-09-22T17:15:09.706Z,12.90
2018-09-22T17:17:37.882Z,12.90
2018-09-22T17:20:06.040Z,12.80
2018-09-22T17:22:34.501Z,12.70
2018-09-22T17:25:03.178Z,12.70
2018-09-22T17:27:31.672Z,12.50
2018-09-22T17:29:59.914Z,12.50
2018-09-22T17:32:28.122Z,12.40
2018-09-22T17:34:56.349Z,12.30
2018-09-22T17:37:24.905Z,12.10
2018-09-22T17:39:53.135Z,12.00
2018-09-22T17:42:21.298Z,11.80
2018-09-22T17:44:49.514Z,11.70
2018-09-22T17:47:17.678Z,11.60
2018-09-22T17:49:45.858Z,11.40
2018-09-22T17:52:14.077Z,11.40
2018-09-22T17:57:32.965Z,11.10
2018-09-22T18:00:01.278Z,11.10
2018-09-22T18:02:30.398Z,11.00
2018-09-22T18:04:58.603Z,11.00
2018-09-22T18:07:26.834Z,10.90
2018-09-22T18:09:55.110Z,10.80
2018-09-22T18:12:23.322Z,10.80
2018-09-22T18:14:51.531Z,10.80
2018-09-22T18:17:19.742Z,10.80
2018-09-22T18:19:47.898Z,10.80
2018-09-22T18:22:16.091Z,10.80
2018-09-22T18:24:44.291Z,10.80
2018-09-22T18:27:13.441Z,10.80
2018-09-22T18:29:41.630Z,10.80
2018-09-22T18:32:09.802Z,10.70
2018-09-22T18:34:38.002Z,10.80
2018-09-22T18:37:06.150Z,10.80
2018-09-22T18:39:34.337Z,10.80
2018-09-22T18:42:02.522Z,10.80
2018-09-22T18:44:30.695Z,10.80
2018-09-22T18:46:58.847Z,10.80
2018-09-22T18:49:27.097Z,10.80
2018-09-22T18:51:55.282Z,10.90
2018-09-22T18:54:23.460Z,10.90
2018-09-22T18:56:51.625Z,10.90
2018-09-22T18:59:19.945Z,10.90
2018-09-22T19:01:48.087Z,10.90
2018-09-22T19:04:16.366Z,10.90
2018-09-22T19:06:44.598Z,10.90
2018-09-22T19:09:12.786Z,10.90
2018-09-22T19:11:41.106Z,11.00
2018-09-22T19:15:13.584Z,11.00
2018-09-22T19:17:47.328Z,11.00
2018-09-22T19:20:34.207Z,11.00
2018-09-22T19:23:09.050Z,11.00
2018-09-22T19:25:40.036Z,11.00
2018-09-22T19:28:15.715Z,10.90
2018-09-22T19:30:46.970Z,10.90
2018-09-22T19:33:21.077Z,10.80
2018-09-22T19:35:52.634Z,10.80
2018-09-22T19:38:31.472Z,10.80
2018-09-22T19:41:04.343Z,10.80
2018-09-22T19:43:39.634Z,10.80
2018-09-22T19:46:13.451Z,10.80
2018-09-22T19:48:45.094Z,10.80
2018-09-22T19:51:15.740Z,10.80
2018-09-22T19:53:44.182Z,10.80
2018-09-22T19:56:12.334Z,10.80
2018-09-22T19:58:40.530Z,10.80
2018-09-22T20:01:08.998Z,10.80
2018-09-22T20:03:37.149Z,10.70
2018-09-22T20:06:05.358Z,10.80
2018-09-22T20:08:33.558Z,10.80
2018-09-22T20:11:01.777Z,10.80
2018-09-22T20:13:29.962Z,10.80
2018-09-22T20:15:58.174Z,10.80
2018-09-22T20:18:26.358Z,10.70
2018-09-22T20:20:54.582Z,10.70
2018-09-22T20:23:22.819Z,10.70
2018-09-22T20:25:51.018Z,10.70
2018-09-22T20:28:19.221Z,10.70
2018-09-22T20:30:47.409Z,10.70
2018-09-22T20:33:15.758Z,10.70
2018-09-22T20:35:44.110Z,10.70
2018-09-22T20:38:12.305Z,10.70
2018-09-22T20:40:40.519Z,10.70
2018-09-22T20:43:09.321Z,10.70
2018-09-22T20:45:37.514Z,10.70
2018-09-22T20:48:05.715Z,10.70
2018-09-22T20:50:33.936Z,10.70
2018-09-22T20:53:02.103Z,10.70
2018-09-22T20:55:30.278Z,10.70
2018-09-22T20:57:58.482Z,10.70
2018-09-22T21:00:26.695Z,10.70
2018-09-22T21:02:54.915Z,10.70
2018-09-22T21:05:23.098Z,10.70
2018-09-22T21:07:51.302Z,10.70
2018-09-22T21:10:19.546Z,10.70
2018-09-22T21:12:47.711Z,10.70
2018-09-22T21:15:15.890Z,10.80
2018-09-22T21:17:44.095Z,10.80
2018-09-22T21:20:12.297Z,10.70
2018-09-22T21:22:40.894Z,10.80
2018-09-22T21:25:09.110Z,10.70
2018-09-22T21:27:37.298Z,10.80
2018-09-22T21:30:05.521Z,10.70
2018-09-22T21:32:33.690Z,10.70
2018-09-22T21:35:01.931Z,10.70
2018-09-22T21:37:30.251Z,10.70
2018-09-22T21:39:58.478Z,10.70
2018-09-22T21:42:26.903Z,10.70
2018-09-22T21:44:55.055Z,10.70
2018-09-22T21:47:23.338Z,10.80
2018-09-22T21:49:51.585Z,10.80
2018-09-22T21:52:20.062Z,10.80
2018-09-22T21:54:48.316Z,10.80
2018-09-22T21:57:16.500Z,10.80
2018-09-22T21:59:44.790Z,10.80
2018-09-22T22:02:12.982Z,10.80
2018-09-22T22:04:41.210Z,10.80
2018-09-22T22:07:09.814Z,10.80
2018-09-22T22:09:38.000Z,10.90
2018-09-22T22:12:06.198Z,10.90
2018-09-22T22:14:41.071Z,10.90
2018-09-22T22:17:09.247Z,10.80
2018-09-22T22:19:37.451Z,10.80
2018-09-22T22:22:05.654Z,10.80
2018-09-22T22:24:33.861Z,10.80
2018-09-22T22:27:01.995Z,10.70
2018-09-22T22:29:30.258Z,10.70
2018-09-22T22:31:59.046Z,10.70
2018-09-22T22:34:27.238Z,10.70
2018-09-22T22:36:55.458Z,10.70
2018-09-22T22:39:23.630Z,10.70
2018-09-22T22:41:51.810Z,10.70
2018-09-22T22:44:20.075Z,10.70
2018-09-22T22:46:48.254Z,10.70
2018-09-22T22:49:16.470Z,10.70
2018-09-22T22:51:44.675Z,10.70
2018-09-22T22:54:12.844Z,10.60
2018-09-22T22:56:41.038Z,10.60
2018-09-22T22:59:09.195Z,10.70
2018-09-22T23:01:37.381Z,10.70
2018-09-22T23:04:05.564Z,10.70
2018-09-22T23:06:33.811Z,10.80
2018-09-22T23:09:02.023Z,10.70
2018-09-22T23:11:30.198Z,10.70
2018-09-22T23:13:58.409Z,10.70
2018-09-22T23:16:27.225Z,10.70
2018-09-22T23:18:55.558Z,10.70
2018-09-22T23:21:23.742Z,10.70
2018-09-22T23:23:51.974Z,10.70
2018-09-22T23:26:20.559Z,10.70
2018-09-22T23:28:48.729Z,10.70
2018-09-22T23:31:16.949Z,10.70
2018-09-22T23:33:45.435Z,10.70
2018-09-22T23:36:13.866Z,10.70
2018-09-22T23:38:42.089Z,10.70
2018-09-22T23:41:10.310Z,10.80
2018-09-22T23:43:38.551Z,10.80
2018-09-22T23:46:06.806Z,10.80
2018-09-22T23:48:35.112Z,10.80
2018-09-22T23:51:03.297Z,10.80
2018-09-22T23:53:31.492Z,10.80
2018-09-22T23:55:59.635Z,10.80
2018-09-22T23:58:27.840Z,10.80
